St Agnes, United Kingdom
Current Conditions -  °F | °C
As of 8:20 AM on Sunday 26 Oct 2014 (Local Time) from EGHQ Reporting Station
Broken Clouds Broken Clouds  
Wind Chill: 54°   Ceiling: 3100
Heat Index: 54°   Visibility: 6mi
Dew Point: 45°   Wind: 9mph
Humidity: 72%   Direction: 200°SSW
Pressure: 30.15"   Gusts: NA
Location:  50.31°N, 5.2°W
Report Text: EGHQ 260720Z 20008KT 9999 BKN031 12/07 Q1021
Loading
Personal Weather Stations






























Interactive Weather Map
Tropical Storm Tracking
New forecast layout! Learn more

10-Day Weather Forecast

Advertisements
Track Severe Weather on mobile